createdAt,value
2022-08-18T00:00:33.946Z,30.60
2022-08-18T00:03:14.262Z,30.13
2022-08-18T00:05:52.350Z,30.35
2022-08-18T00:08:19.397Z,28.90
2022-08-18T00:10:46.471Z,30.23
2022-08-18T00:13:13.528Z,30.08
2022-08-18T00:15:48.998Z,31.10
2022-08-18T00:18:16.820Z,30.63
2022-08-18T00:20:43.858Z,30.10
2022-08-18T00:23:10.968Z,30.20
2022-08-18T00:25:38.068Z,30.10
2022-08-18T00:28:05.242Z,31.52
2022-08-18T00:30:32.557Z,31.83
2022-08-18T00:33:09.904Z,31.45
2022-08-18T00:35:37.993Z,31.25
2022-08-18T00:38:06.208Z,31.67
2022-08-18T00:40:40.747Z,31.65
2022-08-18T00:43:09.423Z,33.05
2022-08-18T00:45:40.451Z,33.15
2022-08-18T00:48:08.566Z,33.40
2022-08-18T00:50:38.102Z,34.10
2022-08-18T00:53:14.256Z,33.17
2022-08-18T00:55:51.348Z,33.25
2022-08-18T00:58:35.850Z,34.33
2022-08-18T01:01:05.178Z,33.78
2022-08-18T01:03:33.672Z,33.83
2022-08-18T01:06:04.759Z,34.30
2022-08-18T01:08:31.901Z,33.83
2022-08-18T01:11:02.273Z,34.25
2022-08-18T01:13:30.723Z,34.15
2022-08-18T01:15:58.051Z,34.53
2022-08-18T01:18:44.273Z,33.85
2022-08-18T01:21:40.236Z,33.30
2022-08-18T01:24:09.369Z,34.85
2022-08-18T01:26:37.698Z,35.00
2022-08-18T01:29:18.984Z,35.50
2022-08-18T01:31:55.874Z,35.05
2022-08-18T01:34:25.832Z,34.70
2022-08-18T01:36:54.103Z,34.47
2022-08-18T01:41:23.807Z,34.55
2022-08-18T01:42:09.382Z,35.25
2022-08-18T01:44:41.711Z,34.60
2022-08-18T01:47:10.706Z,34.70
2022-08-18T01:49:38.224Z,35.83
2022-08-18T01:52:07.093Z,34.95
2022-08-18T01:54:37.402Z,37.47
2022-08-18T01:57:04.623Z,35.10
2022-08-18T01:59:31.665Z,35.92
2022-08-18T02:02:00.068Z,35.78
2022-08-18T02:04:37.506Z,37.05
2022-08-18T02:07:06.999Z,37.05
2022-08-18T02:09:34.317Z,37.00
2022-08-18T02:12:01.757Z,36.92
2022-08-18T02:14:31.587Z,36.00
2022-08-18T02:17:02.936Z,36.88
2022-08-18T02:19:33.844Z,37.40
2022-08-18T02:22:01.023Z,36.08
2022-08-18T02:24:29.435Z,35.72
2022-08-18T02:26:56.559Z,36.50
2022-08-18T02:29:23.645Z,35.85
2022-08-18T02:31:50.786Z,35.70
2022-08-18T02:34:18.221Z,34.97
2022-08-18T02:36:51.715Z,36.75
2022-08-18T02:39:18.838Z,34.25
2022-08-18T02:41:45.913Z,34.65
2022-08-18T02:44:12.958Z,34.45
2022-08-18T02:46:40.194Z,34.90
2022-08-18T02:49:10.176Z,33.65
2022-08-18T02:51:37.238Z,34.20
2022-08-18T02:54:09.139Z,34.53
2022-08-18T02:56:42.101Z,34.67
2022-08-18T02:59:16.166Z,33.25
2022-08-18T03:01:44.978Z,33.67
2022-08-18T03:04:14.275Z,33.30
2022-08-18T03:06:42.132Z,33.60
2022-08-18T03:09:11.645Z,33.05
2022-08-18T03:11:41.578Z,32.97
2022-08-18T03:14:11.450Z,33.50
2022-08-18T03:16:53.346Z,32.40
2022-08-18T03:19:22.800Z,31.48
2022-08-18T03:21:49.868Z,30.83
2022-08-18T03:24:22.698Z,30.67
2022-08-18T03:26:51.654Z,31.30
2022-08-18T03:29:19.396Z,30.75
2022-08-18T03:31:49.705Z,30.77
2022-08-18T03:34:19.674Z,30.60
2022-08-18T03:36:47.471Z,30.08
2022-08-18T03:39:15.028Z,29.80
2022-08-18T03:41:57.417Z,31.60
2022-08-18T03:44:25.551Z,29.75
2022-08-18T03:46:53.735Z,29.58
2022-08-18T03:49:21.060Z,28.88
2022-08-18T03:51:48.713Z,28.08
2022-08-18T03:54:19.454Z,29.08
2022-08-18T03:56:47.641Z,29.77
2022-08-18T03:59:17.890Z,29.13
2022-08-18T04:01:46.171Z,29.08
2022-08-18T04:04:15.212Z,28.55
2022-08-18T04:06:58.091Z,27.95
2022-08-18T04:09:25.952Z,27.05
2022-08-18T04:11:56.134Z,27.85
2022-08-18T04:14:24.917Z,26.60
2022-08-18T04:16:52.583Z,27.17
2022-08-18T04:19:27.185Z,26.60
2022-08-18T04:21:57.375Z,27.15
2022-08-18T04:24:25.760Z,25.30
2022-08-18T04:26:53.051Z,26.02
2022-08-18T04:29:23.618Z,26.27
2022-08-18T04:31:53.739Z,26.92
2022-08-18T04:34:22.781Z,26.73
2022-08-18T04:36:53.590Z,26.58
2022-08-18T04:39:24.439Z,29.15
2022-08-18T04:41:51.929Z,26.85
2022-08-18T04:44:19.659Z,26.70
2022-08-18T04:46:47.909Z,26.58
2022-08-18T04:49:15.488Z,27.33
2022-08-18T04:52:22.611Z,27.30
2022-08-18T04:54:31.936Z,28.20
2022-08-18T04:56:59.118Z,26.38
2022-08-18T04:59:26.177Z,26.77
2022-08-18T05:01:56.194Z,27.57
2022-08-18T05:04:25.403Z,27.48
2022-08-18T05:06:52.673Z,26.92
2022-08-18T05:09:22.832Z,27.20
2022-08-18T05:11:50.975Z,27.45
2022-08-18T05:14:18.653Z,27.10
2022-08-18T05:16:48.894Z,27.58
2022-08-18T05:19:21.982Z,27.73
2022-08-18T05:21:51.469Z,27.77
2022-08-18T05:24:19.227Z,29.73
2022-08-18T05:26:46.404Z,27.48
2022-08-18T05:29:18.774Z,27.88
2022-08-18T05:31:47.602Z,28.85
2022-08-18T05:34:15.071Z,26.80
2022-08-18T05:36:43.767Z,28.10
2022-08-18T05:39:19.647Z,27.55
2022-08-18T05:41:57.128Z,27.25
2022-08-18T05:44:29.019Z,28.23
2022-08-18T05:47:16.344Z,28.42
2022-08-18T05:49:44.840Z,28.15
2022-08-18T05:52:20.656Z,27.45
2022-08-18T05:55:08.225Z,27.60
2022-08-18T05:57:39.794Z,27.27
2022-08-18T06:00:10.348Z,27.23
2022-08-18T06:02:51.749Z,28.25
2022-08-18T06:05:30.646Z,24.00
2022-08-18T06:08:06.682Z,23.73
2022-08-18T06:10:33.865Z,23.70
2022-08-18T06:13:02.071Z,23.13
2022-08-18T06:15:39.455Z,23.85
2022-08-18T06:18:18.965Z,22.92
2022-08-18T06:21:04.338Z,22.67
2022-08-18T06:23:50.323Z,22.40
2022-08-18T06:26:33.876Z,22.73
2022-08-18T06:29:06.974Z,22.67
2022-08-18T06:31:43.744Z,21.15
2022-08-18T06:34:16.709Z,27.67
2022-08-18T06:36:45.121Z,20.92
2022-08-18T06:39:18.048Z,21.50
2022-08-18T06:41:48.686Z,21.13
2022-08-18T06:44:50.984Z,21.50
2022-08-18T06:47:26.146Z,21.60
2022-08-18T06:50:02.103Z,20.08
2022-08-18T06:52:33.901Z,20.83
2022-08-18T06:55:06.421Z,19.40
2022-08-18T06:57:39.027Z,21.80
2022-08-18T07:00:09.667Z,18.50
2022-08-18T07:02:46.028Z,19.42
2022-08-18T07:05:21.236Z,17.07
2022-08-18T07:08:06.982Z,15.98
2022-08-18T07:10:47.062Z,14.73
2022-08-18T07:13:14.069Z,15.85
2022-08-18T07:15:48.195Z,15.35
2022-08-18T07:18:17.269Z,19.13
2022-08-18T07:20:48.658Z,17.88
2022-08-18T07:23:38.348Z,15.85
2022-08-18T07:26:11.541Z,16.92
2022-08-18T07:28:48.214Z,17.83
2022-08-18T07:31:36.648Z,18.17
2022-08-18T07:34:09.817Z,16.02
2022-08-18T07:36:42.673Z,16.17
2022-08-18T07:39:16.265Z,15.75
2022-08-18T07:41:57.421Z,13.60
2022-08-18T07:44:28.071Z,14.48
2022-08-18T07:47:03.737Z,13.30
2022-08-18T07:49:36.073Z,13.25
2022-08-18T07:52:18.574Z,12.55
2022-08-18T07:55:04.523Z,11.85
2022-08-18T07:57:42.354Z,12.43
2022-08-18T08:00:18.641Z,11.57
2022-08-18T08:03:08.888Z,12.30
2022-08-18T08:05:40.218Z,10.23
2022-08-18T08:08:25.339Z,8.38
2022-08-18T08:11:17.411Z,8.75
2022-08-18T08:14:04.345Z,6.97
2022-08-18T08:16:37.506Z,8.38
2022-08-18T08:19:12.506Z,8.13
2022-08-18T08:21:45.056Z,8.65
2022-08-18T08:24:31.609Z,8.23
2022-08-18T08:27:01.685Z,8.73
2022-08-18T08:29:44.528Z,9.80
2022-08-18T08:32:15.508Z,10.98
2022-08-18T08:34:51.689Z,10.45
2022-08-18T08:37:21.840Z,9.38
2022-08-18T08:39:57.713Z,8.48
2022-08-18T08:42:44.365Z,9.03
2022-08-18T08:45:16.928Z,9.37
2022-08-18T08:47:53.172Z,7.75
2022-08-18T08:50:22.446Z,9.70
2022-08-18T08:53:03.221Z,8.82
2022-08-18T08:55:35.049Z,8.63
2022-08-18T08:58:21.646Z,8.05
2022-08-18T09:00:52.184Z,7.70
2022-08-18T09:03:34.688Z,9.88
2022-08-18T09:06:24.765Z,7.78
2022-08-18T09:08:57.291Z,10.03
2022-08-18T09:11:34.865Z,9.40
2022-08-18T09:14:14.196Z,8.88
2022-08-18T09:16:41.265Z,9.43
2022-08-18T09:19:14.511Z,11.65
2022-08-18T09:21:49.626Z,10.70
2022-08-18T09:24:22.818Z,12.53
2022-08-18T09:26:55.628Z,10.32
2022-08-18T09:29:23.622Z,10.83
2022-08-18T09:32:12.472Z,11.48
2022-08-18T09:34:46.201Z,10.70
2022-08-18T09:37:17.161Z,11.45
2022-08-18T09:40:10.912Z,9.43
2022-08-18T09:42:49.905Z,10.32
2022-08-18T09:45:33.989Z,10.77
2022-08-18T09:48:03.715Z,9.27
2022-08-18T09:50:38.897Z,11.38
2022-08-18T09:53:24.769Z,11.20
2022-08-18T09:56:00.772Z,11.73
2022-08-18T09:58:29.488Z,8.43
2022-08-18T10:01:19.879Z,8.27
2022-08-18T10:04:08.307Z,9.67
2022-08-18T10:06:39.700Z,9.38
2022-08-18T10:09:26.670Z,8.68
2022-08-18T10:12:09.841Z,8.18
2022-08-18T10:14:42.823Z,8.90
2022-08-18T10:17:31.275Z,7.72
2022-08-18T10:20:26.467Z,7.00
2022-08-18T10:22:54.864Z,7.70
2022-08-18T10:25:39.619Z,7.40
2022-08-18T10:28:13.653Z,6.88
2022-08-18T10:33:47.849Z,9.05
2022-08-18T10:36:33.167Z,6.95
2022-08-18T10:39:07.803Z,7.47
2022-08-18T10:41:37.890Z,7.50
2022-08-18T10:44:27.609Z,7.50
2022-08-18T10:46:55.835Z,6.68
2022-08-18T10:49:26.039Z,8.38
2022-08-18T10:52:21.129Z,6.90
2022-08-18T10:55:10.321Z,8.80
2022-08-18T10:58:00.845Z,8.15
2022-08-18T11:00:40.653Z,8.03
2022-08-18T11:03:50.403Z,6.15
2022-08-18T11:06:24.818Z,8.18
2022-08-18T11:11:53.229Z,5.37
2022-08-18T11:14:45.714Z,6.80
2022-08-18T11:17:36.149Z,7.75
2022-08-18T11:20:09.619Z,6.95
2022-08-18T11:22:38.422Z,7.60
2022-08-18T11:25:19.672Z,6.20
2022-08-18T11:27:48.374Z,6.30
2022-08-18T11:30:17.267Z,7.38
2022-08-18T11:32:52.210Z,5.75
2022-08-18T11:35:22.132Z,6.55
2022-08-18T11:43:29.489Z,6.80
2022-08-18T11:46:17.472Z,7.07
2022-08-18T11:48:53.368Z,6.45
2022-08-18T11:51:27.158Z,6.88
2022-08-18T11:54:19.660Z,5.88
2022-08-18T11:56:47.611Z,6.60
2022-08-18T12:02:17.767Z,7.68
2022-08-18T12:04:44.951Z,7.43
2022-08-18T12:07:14.151Z,8.77
2022-08-18T12:12:45.079Z,6.30
2022-08-18T12:15:17.669Z,5.93
2022-08-18T12:17:53.014Z,7.17
2022-08-18T12:20:20.793Z,7.68
2022-08-18T12:22:49.600Z,7.25
2022-08-18T12:25:24.810Z,8.50
2022-08-18T12:27:52.589Z,6.25
2022-08-18T12:30:22.423Z,6.55
2022-08-18T12:32:51.291Z,7.35
2022-08-18T12:35:23.716Z,5.23
2022-08-18T12:38:11.128Z,5.30
2022-08-18T12:40:39.928Z,7.77
2022-08-18T12:43:07.150Z,5.63
2022-08-18T12:45:34.689Z,5.50
2022-08-18T12:48:14.367Z,5.68
2022-08-18T12:50:54.399Z,7.07
2022-08-18T12:53:29.843Z,5.18
2022-08-18T12:56:06.346Z,5.13
2022-08-18T12:58:36.322Z,6.88
2022-08-18T13:01:03.931Z,8.30
2022-08-18T13:03:36.976Z,9.20
2022-08-18T13:06:04.875Z,6.20
2022-08-18T13:08:33.633Z,8.32
2022-08-18T13:11:14.759Z,6.70
2022-08-18T13:13:53.277Z,5.45
2022-08-18T13:16:39.067Z,9.02
2022-08-18T13:19:16.637Z,5.65
2022-08-18T13:21:43.709Z,5.70
2022-08-18T13:24:16.530Z,5.87
2022-08-18T13:26:49.517Z,5.45
2022-08-18T13:29:19.291Z,4.50
2022-08-18T13:31:55.406Z,5.60
2022-08-18T13:34:24.990Z,7.80
2022-08-18T13:36:52.602Z,5.68
2022-08-18T13:39:20.997Z,6.27
2022-08-18T13:41:49.251Z,5.18
2022-08-18T13:44:18.596Z,7.85
2022-08-18T13:46:48.120Z,6.13
2022-08-18T13:49:15.985Z,7.45
2022-08-18T13:51:46.633Z,6.13
2022-08-18T13:54:30.382Z,5.30
2022-08-18T13:56:59.497Z,6.40
2022-08-18T13:59:31.604Z,7.77
2022-08-18T14:01:59.524Z,9.05
2022-08-18T14:04:29.277Z,8.63
2022-08-18T14:06:59.837Z,9.68
2022-08-18T14:09:37.614Z,7.97
2022-08-18T14:12:06.473Z,6.80
2022-08-18T14:14:33.658Z,6.10
2022-08-18T14:17:01.190Z,7.22
2022-08-18T14:20:04.323Z,7.82
2022-08-18T14:22:50.008Z,8.10
2022-08-18T14:25:35.824Z,8.63
2022-08-18T14:28:04.051Z,6.80
2022-08-18T14:30:31.509Z,8.18
2022-08-18T14:33:00.209Z,9.40
2022-08-18T14:36:04.579Z,9.60
2022-08-18T14:38:15.992Z,8.85
2022-08-18T14:40:44.091Z,7.95
2022-08-18T14:43:14.181Z,9.10
2022-08-18T14:45:47.560Z,8.43
2022-08-18T14:48:21.510Z,7.78
2022-08-18T14:50:50.287Z,8.70
2022-08-18T14:53:20.119Z,7.88
2022-08-18T14:55:54.547Z,6.20
2022-08-18T14:58:26.219Z,6.63
2022-08-18T15:00:56.266Z,6.60
2022-08-18T15:03:31.045Z,7.10
2022-08-18T15:06:00.385Z,7.50
2022-08-18T15:08:27.950Z,7.75
2022-08-18T15:10:55.901Z,6.50
2022-08-18T15:13:26.477Z,6.28
2022-08-18T15:15:55.771Z,8.52
2022-08-18T15:18:38.052Z,7.18
2022-08-18T15:21:35.623Z,10.93
2022-08-18T15:24:29.076Z,9.45
2022-08-18T15:26:58.356Z,8.10
2022-08-18T15:29:33.316Z,9.15
2022-08-18T15:32:10.257Z,12.40
2022-08-18T15:34:46.385Z,10.57
2022-08-18T15:37:24.147Z,10.02
2022-08-18T15:39:59.636Z,11.63
2022-08-18T15:42:29.675Z,12.75
2022-08-18T15:44:56.846Z,14.20
2022-08-18T15:47:26.789Z,14.43
2022-08-18T15:49:54.849Z,13.52
2022-08-18T15:52:31.136Z,12.13
2022-08-18T15:55:02.237Z,12.48
2022-08-18T15:57:39.151Z,12.20
2022-08-18T16:00:07.567Z,11.93
2022-08-18T16:02:39.887Z,11.00
2022-08-18T16:05:09.264Z,10.10
2022-08-18T16:07:41.317Z,10.57
2022-08-18T16:10:21.578Z,10.25
2022-08-18T16:12:48.692Z,12.00
2022-08-18T16:15:19.910Z,12.38
2022-08-18T16:17:49.236Z,11.75
2022-08-18T16:20:18.599Z,13.27
2022-08-18T16:22:46.239Z,12.52
2022-08-18T16:25:13.305Z,12.73
2022-08-18T16:27:43.213Z,13.17
2022-08-18T16:30:11.814Z,13.43
2022-08-18T16:32:41.532Z,11.82
2022-08-18T16:35:09.068Z,13.73
2022-08-18T16:37:38.672Z,13.43
2022-08-18T16:40:06.078Z,14.13
2022-08-18T16:42:34.645Z,12.17
2022-08-18T16:45:02.339Z,12.43
2022-08-18T16:47:32.116Z,10.43
2022-08-18T16:50:00.036Z,10.73
2022-08-18T16:52:27.327Z,11.10
2022-08-18T16:54:57.295Z,11.57
2022-08-18T16:57:53.788Z,11.23
2022-08-18T17:00:42.210Z,11.32
2022-08-18T17:03:30.584Z,12.15
2022-08-18T17:06:04.880Z,10.10
2022-08-18T17:08:34.005Z,10.10
2022-08-18T17:11:05.344Z,10.10
2022-08-18T17:13:32.616Z,9.80
2022-08-18T17:15:59.799Z,8.77
2022-08-18T17:18:27.463Z,11.50
2022-08-18T17:20:55.497Z,9.20
2022-08-18T17:23:22.681Z,11.45
2022-08-18T17:25:50.370Z,9.63
2022-08-18T17:28:19.818Z,9.45
2022-08-18T17:30:53.000Z,9.35
2022-08-18T17:33:24.565Z,9.82
2022-08-18T17:35:54.049Z,7.40
2022-08-18T17:38:32.488Z,9.00
2022-08-18T17:40:59.842Z,9.10
2022-08-18T17:43:30.212Z,8.23
2022-08-18T17:46:10.215Z,7.55
2022-08-18T17:48:53.915Z,7.68
2022-08-18T17:51:35.278Z,8.35
2022-08-18T17:54:13.147Z,9.82
